Time;durP1;ratioP1;P1;durP2;ratioP2;P2;SDS_P1;SDS_P2;PMS_P1;PMS_P2;Temp;Humidity;BMP_temperature;BMP_pressure;BME280_temperature;BME280_humidity;BME280_pressure;Samples;Min_cycle;Max_cycle;Signal;HPM_P1;HPM_P2
2022/03/13 00:02:05;;;;;;;13.40;7.93;;;2.20;50.50;;;;;;5050982;28;20033;-78
2022/03/13 00:04:30;;;;;;;39.15;22.52;;;2.10;50.60;;;;;;5041407;28;20043;-80
2022/03/13 00:06:56;;;;;;;35.30;17.30;;;2.10;50.60;;;;;;5053832;28;20370;-78
2022/03/13 00:09:22;;;;;;;34.35;21.85;;;2.10;50.60;;;;;;5070236;28;20040;-78
2022/03/13 00:11:53;;;;;;;27.63;13.95;;;2.00;50.70;;;;;;5027643;28;20114;-77
2022/03/13 00:14:24;;;;;;;27.90;16.35;;;2.00;50.80;;;;;;5059031;28;20113;-78
2022/03/13 00:16:50;;;;;;;25.42;15.18;;;2.00;50.80;;;;;;5068184;28;20033;-77
2022/03/13 00:19:19;;;;;;;20.33;12.50;;;1.90;50.90;;;;;;5050404;28;20035;-78
2022/03/13 00:21:50;;;;;;;17.45;9.65;;;1.90;51.00;;;;;;5057359;28;20090;-78
2022/03/13 00:24:20;;;;;;;16.73;9.35;;;1.90;51.20;;;;;;5060901;28;20074;-78
2022/03/13 00:26:47;;;;;;;18.73;8.93;;;1.90;51.10;;;;;;5058155;28;20111;-77
2022/03/13 00:29:12;;;;;;;14.32;7.75;;;1.90;51.20;;;;;;5050684;28;20032;-78
2022/03/13 00:31:38;;;;;;;17.35;8.70;;;1.80;51.30;;;;;;5059899;28;20090;-78
2022/03/13 00:34:03;;;;;;;14.95;8.38;;;1.80;51.30;;;;;;5030502;28;20048;-78
2022/03/13 00:36:29;;;;;;;16.35;8.27;;;1.80;51.40;;;;;;5033699;28;20040;-78
2022/03/13 00:38:55;;;;;;;16.30;8.45;;;1.80;51.50;;;;;;5058535;28;20109;-78
2022/03/13 00:41:20;;;;;;;15.77;7.50;;;1.70;51.60;;;;;;5059338;28;20036;-78
2022/03/13 00:43:46;;;;;;;15.27;7.88;;;1.70;51.70;;;;;;5058190;28;20029;-77
2022/03/13 00:46:11;;;;;;;14.80;8.02;;;1.80;51.80;;;;;;5066584;28;20123;-78
2022/03/13 00:48:37;;;;;;;17.90;8.63;;;1.70;51.80;;;;;;5042491;28;20128;-77
2022/03/13 00:51:03;;;;;;;12.90;7.57;;;1.70;51.80;;;;;;5042273;28;20037;-78
2022/03/13 00:53:29;;;;;;;13.50;7.43;;;1.60;51.90;;;;;;5057641;28;20029;-81
2022/03/13 00:55:54;;;;;;;14.05;6.75;;;1.60;52.00;;;;;;5043010;28;20591;-77
2022/03/13 00:58:20;;;;;;;14.70;7.68;;;1.60;52.00;;;;;;5057405;28;20040;-77
2022/03/13 01:00:45;;;;;;;14.00;6.90;;;1.50;52.00;;;;;;5072853;28;20532;-77
2022/03/13 01:03:29;;;;;;;14.75;7.85;;;1.60;52.10;;;;;;5065381;28;20082;-77
2022/03/13 01:05:55;;;;;;;17.77;7.65;;;1.60;52.50;;;;;;5065876;28;20056;-78
2022/03/13 01:08:20;;;;;;;13.63;6.82;;;1.50;52.30;;;;;;5066419;28;20033;-76
2022/03/13 01:10:46;;;;;;;16.42;8.10;;;1.50;52.30;;;;;;5036664;28;20059;-77
2022/03/13 01:13:12;;;;;;;15.95;7.53;;;1.50;52.40;;;;;;5076845;28;20040;-77
2022/03/13 01:15:38;;;;;;;12.98;7.25;;;1.50;52.50;;;;;;5052518;28;20036;-77
2022/03/13 01:18:04;;;;;;;14.40;7.47;;;1.50;52.60;;;;;;5050479;28;20036;-78
2022/03/13 01:20:29;;;;;;;13.55;7.50;;;1.40;52.50;;;;;;5045818;28;20037;-78
2022/03/13 01:22:55;;;;;;;14.25;7.82;;;1.40;52.50;;;;;;5068642;28;20171;-78
2022/03/13 01:25:20;;;;;;;12.95;7.53;;;1.30;52.50;;;;;;5065760;28;20054;-77
2022/03/13 01:27:46;;;;;;;16.08;7.63;;;1.30;52.50;;;;;;5019923;28;20402;-78
2022/03/13 01:30:14;;;;;;;15.88;7.28;;;1.30;52.60;;;;;;5064560;28;20492;-77
2022/03/13 01:32:40;;;;;;;15.30;7.70;;;1.20;52.60;;;;;;5042406;28;20036;-77
2022/03/13 01:35:06;;;;;;;15.73;7.15;;;1.20;52.80;;;;;;5022235;28;20057;-77
2022/03/13 01:37:33;;;;;;;13.80;7.63;;;1.10;52.90;;;;;;5057514;28;20056;-78
2022/03/13 01:40:04;;;;;;;15.32;6.68;;;1.10;53.00;;;;;;5037090;28;20071;-77
2022/03/13 01:42:30;;;;;;;14.63;7.57;;;1.10;53.00;;;;;;5058208;28;20111;-78
2022/03/13 01:44:56;;;;;;;15.07;7.10;;;1.10;53.00;;;;;;5045566;28;20470;-77
2022/03/13 01:47:23;;;;;;;14.88;7.00;;;1.10;53.10;;;;;;5063805;28;20728;-78
2022/03/13 01:49:49;;;;;;;16.33;6.85;;;1.10;53.20;;;;;;5025774;28;20053;-78
2022/03/13 01:52:16;;;;;;;13.45;7.07;;;1.00;53.20;;;;;;5048857;28;20058;-77
2022/03/13 01:54:44;;;;;;;14.98;6.72;;;1.00;53.20;;;;;;5046784;28;20036;-77
2022/03/13 01:57:14;;;;;;;12.98;6.82;;;0.90;53.20;;;;;;5054871;28;20028;-77
2022/03/13 01:59:39;;;;;;;11.82;6.63;;;0.90;53.20;;;;;;5067569;28;20094;-77
2022/03/13 02:02:05;;;;;;;11.43;6.47;;;0.90;53.30;;;;;;5056256;28;20021;-77
2022/03/13 02:04:32;;;;;;;9.98;5.85;;;0.80;53.40;;;;;;5064003;28;20400;-78
2022/03/13 02:06:58;;;;;;;14.32;6.65;;;0.80;53.50;;;;;;5050785;28;20143;-76
2022/03/13 02:09:24;;;;;;;15.15;7.53;;;0.80;53.70;;;;;;5041664;28;20032;-78
2022/03/13 02:11:51;;;;;;;15.85;6.00;;;0.80;53.60;;;;;;5038818;28;20047;-78
2022/03/13 02:14:20;;;;;;;12.48;7.18;;;0.80;53.70;;;;;;5063980;28;20124;-77
2022/03/13 02:16:45;;;;;;;12.48;6.72;;;0.80;53.70;;;;;;5070086;28;20032;-76
2022/03/13 02:19:11;;;;;;;12.75;6.85;;;0.70;53.70;;;;;;5069455;28;20047;-79
2022/03/13 02:21:44;;;;;;;11.02;6.35;;;0.70;53.80;;;;;;5083944;28;20031;-79
2022/03/13 02:24:13;;;;;;;11.63;5.68;;;0.70;53.90;;;;;;5048346;28;20037;-79
2022/03/13 02:26:42;;;;;;;14.57;7.00;;;0.70;53.90;;;;;;5029795;28;20054;-79
2022/03/13 02:29:10;;;;;;;13.63;7.13;;;0.60;53.90;;;;;;5073525;28;20048;-79
2022/03/13 02:31:37;;;;;;;14.02;6.18;;;0.70;54.00;;;;;;5040839;28;20786;-79
2022/03/13 02:34:03;;;;;;;11.85;6.53;;;0.60;54.00;;;;;;5016035;28;20182;-80
2022/03/13 02:36:31;;;;;;;10.38;5.43;;;0.60;54.00;;;;;;5049857;28;20040;-79
2022/03/13 02:38:58;;;;;;;12.07;5.90;;;0.60;54.00;;;;;;5065931;28;20110;-80
2022/03/13 02:41:26;;;;;;;16.98;6.75;;;0.50;54.00;;;;;;5051315;28;20173;-79
2022/03/13 02:43:52;;;;;;;11.45;5.85;;;0.50;54.00;;;;;;5050418;28;20040;-79
2022/03/13 02:46:20;;;;;;;11.45;6.35;;;0.50;54.00;;;;;;5061127;28;20055;-79
2022/03/13 02:48:46;;;;;;;49.72;16.95;;;0.50;54.10;;;;;;5030967;28;20039;-79
2022/03/13 02:51:11;;;;;;;38.75;13.95;;;0.50;54.10;;;;;;5035355;28;20048;-79
2022/03/13 02:53:37;;;;;;;39.85;14.82;;;0.50;54.10;;;;;;5061574;28;20507;-79
2022/03/13 02:56:03;;;;;;;26.25;11.95;;;0.50;54.20;;;;;;5058309;28;20444;-80
2022/03/13 02:58:29;;;;;;;24.83;9.95;;;0.50;54.20;;;;;;5065325;28;20123;-79
2022/03/13 03:00:55;;;;;;;28.42;11.02;;;0.50;54.30;;;;;;5066189;28;20088;-80
2022/03/13 03:03:21;;;;;;;16.83;9.00;;;0.40;54.20;;;;;;5062287;28;20117;-81
2022/03/13 03:05:46;;;;;;;19.73;8.90;;;0.40;54.30;;;;;;5045709;28;20041;-79
2022/03/13 03:08:12;;;;;;;20.23;8.63;;;0.40;54.50;;;;;;5065562;28;20039;-80
2022/03/13 03:10:38;;;;;;;22.13;9.70;;;0.40;54.50;;;;;;5068385;28;20044;-79
2022/03/13 03:13:04;;;;;;;17.08;7.47;;;0.40;54.50;;;;;;5060615;28;20095;-80
2022/03/13 03:15:29;;;;;;;14.25;7.28;;;0.40;54.50;;;;;;5065934;28;20119;-79
2022/03/13 03:17:55;;;;;;;16.27;6.85;;;0.40;54.60;;;;;;5045025;28;20043;-79
2022/03/13 03:20:21;;;;;;;14.43;6.78;;;0.30;54.60;;;;;;5046450;28;20039;-79
2022/03/13 03:22:48;;;;;;;13.88;6.57;;;0.30;54.60;;;;;;5061754;28;20044;-79
2022/03/13 03:25:13;;;;;;;16.85;6.95;;;0.30;54.60;;;;;;5063689;28;20041;-77
2022/03/13 03:27:40;;;;;;;16.67;7.35;;;0.20;54.70;;;;;;5051819;28;20052;-77
2022/03/13 03:30:06;;;;;;;14.77;7.38;;;0.20;54.80;;;;;;5047083;28;20033;-77
2022/03/13 03:32:31;;;;;;;13.45;7.35;;;0.10;54.70;;;;;;5065193;28;20028;-79
2022/03/13 03:34:57;;;;;;;12.98;7.50;;;0.10;54.80;;;;;;5055008;28;20040;-80
2022/03/13 03:37:22;;;;;;;12.43;6.43;;;0.10;54.90;;;;;;5044224;28;20547;-80
2022/03/13 03:39:51;;;;;;;11.18;5.82;;;0.10;54.90;;;;;;5028212;28;20060;-78
2022/03/13 03:42:16;;;;;;;10.95;6.05;;;0.00;54.90;;;;;;5051347;28;20028;-79
2022/03/13 03:44:42;;;;;;;10.52;5.53;;;0.00;54.90;;;;;;5048637;28;20074;-78
2022/03/13 03:47:07;;;;;;;8.23;5.68;;;-0.10;54.90;;;;;;5024999;28;20063;-79
2022/03/13 03:49:34;;;;;;;8.63;5.40;;;-0.10;55.00;;;;;;5013055;28;20040;-79
2022/03/13 03:51:59;;;;;;;10.50;5.32;;;-0.10;55.10;;;;;;5052321;28;20170;-79
2022/03/13 03:54:25;;;;;;;11.50;5.60;;;-0.10;55.20;;;;;;5061244;28;20076;-79
2022/03/13 03:56:51;;;;;;;13.95;5.40;;;-0.10;55.20;;;;;;5018704;28;20025;-78
2022/03/13 03:59:20;;;;;;;9.98;5.72;;;-0.10;55.20;;;;;;5051656;28;20036;-78
2022/03/13 04:01:45;;;;;;;9.00;5.18;;;-0.10;55.20;;;;;;5048058;28;20432;-77
2022/03/13 04:04:11;;;;;;;9.63;5.78;;;-0.10;55.20;;;;;;5018359;28;20059;-78
2022/03/13 04:06:40;;;;;;;8.35;5.10;;;-0.10;55.20;;;;;;5047999;28;20049;-77
2022/03/13 04:09:06;;;;;;;8.73;5.35;;;-0.10;55.90;;;;;;5055141;28;20056;-77
2022/03/13 04:11:33;;;;;;;7.68;4.90;;;-0.10;55.20;;;;;;5059275;28;20069;-77
2022/03/13 04:13:58;;;;;;;10.77;5.25;;;-0.10;55.20;;;;;;5064219;28;20045;-78
2022/03/13 04:16:24;;;;;;;12.13;5.65;;;-0.10;55.20;;;;;;5063809;28;20035;-77
2022/03/13 04:18:49;;;;;;;8.45;5.43;;;-0.10;55.20;;;;;;5034529;28;20599;-77
2022/03/13 04:21:15;;;;;;;8.10;4.78;;;-0.20;55.20;;;;;;5042412;28;20035;-77
2022/03/13 04:23:41;;;;;;;11.18;5.53;;;-0.20;55.20;;;;;;5057408;28;20032;-77
2022/03/13 04:26:06;;;;;;;8.65;5.13;;;-0.20;55.30;;;;;;5055937;28;20039;-77
2022/03/13 04:28:33;;;;;;;7.57;4.93;;;-0.30;55.20;;;;;;5040982;28;20040;-77
2022/03/13 04:30:59;;;;;;;8.18;4.65;;;-0.30;55.20;;;;;;5055547;28;20441;-77
2022/03/13 04:33:28;;;;;;;9.38;5.43;;;-0.30;55.20;;;;;;5062101;28;20079;-77
2022/03/13 04:35:56;;;;;;;11.65;5.88;;;-0.30;55.40;;;;;;5022947;28;20138;-77
2022/03/13 04:38:23;;;;;;;8.27;5.20;;;-0.30;55.30;;;;;;5056396;28;20232;-76
2022/03/13 04:40:51;;;;;;;9.60;5.40;;;-0.40;55.30;;;;;;5046488;28;20040;-78
2022/03/13 04:43:16;;;;;;;8.32;5.07;;;-0.40;55.30;;;;;;5048476;28;20040;-77
2022/03/13 04:45:42;;;;;;;7.55;4.90;;;-0.40;55.30;;;;;;5030238;28;20090;-77
2022/03/13 04:48:08;;;;;;;9.77;5.18;;;-0.40;55.30;;;;;;5055799;28;20129;-77
2022/03/13 04:50:33;;;;;;;10.25;5.25;;;-0.40;55.40;;;;;;5056699;28;20037;-79
2022/03/13 04:52:59;;;;;;;7.53;4.68;;;-0.40;55.40;;;;;;5046480;28;20037;-78
2022/03/13 04:55:25;;;;;;;9.77;5.15;;;-0.40;55.40;;;;;;5049795;28;20039;-77
2022/03/13 04:57:50;;;;;;;12.20;5.22;;;-0.40;55.40;;;;;;5041507;28;20060;-77
2022/03/13 05:00:16;;;;;;;10.85;4.93;;;-0.40;55.40;;;;;;5059840;28;20048;-77
2022/03/13 05:02:43;;;;;;;9.85;5.25;;;-0.40;55.40;;;;;;5064928;28;20037;-77
2022/03/13 05:05:09;;;;;;;8.90;5.10;;;-0.40;55.40;;;;;;5071935;28;19924;-77
2022/03/13 05:07:36;;;;;;;11.23;5.35;;;-0.40;55.40;;;;;;5059690;28;20047;-78
2022/03/13 05:10:02;;;;;;;9.23;5.00;;;-0.40;55.50;;;;;;5063321;28;20021;-77
2022/03/13 05:12:29;;;;;;;9.32;4.85;;;-0.50;55.50;;;;;;5058877;28;20062;-77
2022/03/13 05:14:54;;;;;;;10.52;5.28;;;-0.50;55.50;;;;;;5045542;28;20501;-78
2022/03/13 05:17:20;;;;;;;8.30;4.50;;;-0.50;55.50;;;;;;5057003;28;20126;-78
2022/03/13 05:19:46;;;;;;;9.88;5.30;;;-0.50;55.50;;;;;;5057554;28;20118;-77
2022/03/13 05:22:11;;;;;;;9.95;5.22;;;-0.50;55.60;;;;;;5053182;28;20042;-78
2022/03/13 05:24:37;;;;;;;7.90;4.30;;;-0.60;55.60;;;;;;5030987;28;20049;-78
2022/03/13 05:27:03;;;;;;;7.65;4.15;;;-0.60;55.60;;;;;;5046629;28;20032;-78
2022/03/13 05:29:28;;;;;;;9.50;5.15;;;-0.60;55.70;;;;;;5054169;28;20485;-80
2022/03/13 05:31:54;;;;;;;10.48;4.97;;;-0.60;55.70;;;;;;5030042;28;20033;-79
2022/03/13 05:34:19;;;;;;;9.50;5.22;;;-0.60;55.80;;;;;;5045830;28;20047;-79
2022/03/13 05:36:46;;;;;;;11.68;5.63;;;-0.60;55.80;;;;;;5059413;28;21214;-77
2022/03/13 05:39:11;;;;;;;9.15;5.25;;;-0.60;55.80;;;;;;5046088;28;20157;-78
2022/03/13 05:41:39;;;;;;;8.80;5.40;;;-0.70;55.80;;;;;;5046850;28;20087;-78
2022/03/13 05:44:07;;;;;;;8.23;4.28;;;-0.70;55.80;;;;;;5063213;28;20727;-78
2022/03/13 05:46:34;;;;;;;11.10;5.53;;;-0.70;55.90;;;;;;5054537;28;20036;-78
2022/03/13 05:49:00;;;;;;;7.38;4.70;;;-0.80;55.90;;;;;;5059869;28;20063;-78
2022/03/13 05:51:25;;;;;;;8.40;4.50;;;-0.80;56.00;;;;;;5045959;28;20039;-77
2022/03/13 05:53:51;;;;;;;10.73;5.20;;;-0.80;56.00;;;;;;5057384;28;20089;-76
2022/03/13 05:56:16;;;;;;;10.77;4.85;;;-0.80;56.00;;;;;;5055680;28;20092;-78
2022/03/13 05:58:42;;;;;;;9.38;5.50;;;-0.80;56.00;;;;;;5056920;28;20552;-78
2022/03/13 06:01:08;;;;;;;9.45;5.20;;;-0.80;56.10;;;;;;5032922;28;20635;-77
2022/03/13 06:03:34;;;;;;;10.43;5.05;;;-0.80;56.10;;;;;;5055604;28;20066;-79
2022/03/13 06:06:02;;;;;;;9.48;5.30;;;-0.80;56.10;;;;;;5064642;28;20051;-79
2022/03/13 06:08:27;;;;;;;7.82;4.63;;;-0.80;56.20;;;;;;5058004;28;20037;-78
2022/03/13 06:10:53;;;;;;;8.73;4.80;;;-0.80;56.20;;;;;;5053296;28;20033;-77
2022/03/13 06:13:19;;;;;;;10.25;5.45;;;-0.70;56.30;;;;;;5039799;28;20036;-78
2022/03/13 06:15:45;;;;;;;8.70;5.03;;;-0.70;56.20;;;;;;5049100;28;20101;-79
2022/03/13 06:18:11;;;;;;;8.20;4.70;;;-0.70;56.20;;;;;;5038589;28;20116;-77
2022/03/13 06:20:36;;;;;;;12.68;5.00;;;-0.70;56.30;;;;;;5040847;28;20488;-78
2022/03/13 06:23:03;;;;;;;10.88;5.82;;;-0.70;56.30;;;;;;5065022;28;20719;-81
2022/03/13 06:25:29;;;;;;;11.45;6.43;;;-0.60;56.40;;;;;;5067895;28;20040;-79
2022/03/13 06:27:54;;;;;;;25.60;8.73;;;-0.60;56.40;;;;;;5053974;28;20071;-78
2022/03/13 06:30:20;;;;;;;17.63;7.35;;;-0.50;56.50;;;;;;5058071;28;20059;-79
2022/03/13 06:32:50;;;;;;;15.48;7.03;;;-0.50;56.40;;;;;;5042319;28;20044;-79
2022/03/13 06:35:17;;;;;;;16.58;6.43;;;-0.50;56.50;;;;;;5060392;28;20636;-79
2022/03/13 06:37:43;;;;;;;12.25;6.22;;;-0.40;56.50;;;;;;5059444;28;20037;-78
2022/03/13 06:40:09;;;;;;;10.65;6.03;;;-0.40;56.60;;;;;;5056150;28;20036;-79
2022/03/13 06:42:34;;;;;;;10.77;5.72;;;-0.40;56.60;;;;;;5044312;28;20028;-78
2022/03/13 06:45:00;;;;;;;11.50;5.93;;;-0.30;56.50;;;;;;5052511;28;20079;-78
2022/03/13 06:47:26;;;;;;;10.23;5.85;;;-0.20;56.50;;;;;;5042440;28;20033;-79
2022/03/13 06:49:51;;;;;;;10.68;5.15;;;-0.20;56.40;;;;;;5053050;28;20036;-78
2022/03/13 06:52:17;;;;;;;11.65;5.93;;;-0.20;56.30;;;;;;5046297;28;20055;-79
2022/03/13 06:54:43;;;;;;;9.77;5.68;;;-0.10;56.40;;;;;;5045609;28;20042;-79
2022/03/13 06:57:09;;;;;;;20.33;9.85;;;0.00;56.40;;;;;;5032734;28;20161;-78
2022/03/13 06:59:34;;;;;;;10.40;6.03;;;0.10;56.40;;;;;;5012266;28;20587;-78
2022/03/13 07:02:00;;;;;;;20.23;10.60;;;0.20;56.30;;;;;;5016391;28;20029;-80
2022/03/13 07:04:26;;;;;;;21.02;9.07;;;0.30;56.10;;;;;;5039973;28;20035;-79
2022/03/13 07:06:51;;;;;;;16.60;7.80;;;0.40;56.00;;;;;;5039656;28;20048;-79
2022/03/13 07:09:17;;;;;;;16.85;8.93;;;0.50;56.00;;;;;;5052134;28;20123;-81
2022/03/13 07:11:45;;;;;;;10.60;6.22;;;0.60;55.90;;;;;;5064890;28;20037;-80
2022/03/13 07:14:11;;;;;;;10.93;5.28;;;0.70;55.90;;;;;;5058374;28;20044;-80
2022/03/13 07:16:37;;;;;;;12.20;5.70;;;0.80;55.80;;;;;;5065955;28;20040;-79
2022/03/13 07:19:03;;;;;;;9.98;5.70;;;1.00;55.80;;;;;;5054970;28;20033;-79
2022/03/13 07:21:28;;;;;;;10.35;5.57;;;1.10;55.70;;;;;;5030468;28;20088;-80
2022/03/13 07:23:54;;;;;;;8.90;5.43;;;1.20;55.50;;;;;;5049543;28;20044;-80
2022/03/13 07:26:19;;;;;;;11.60;4.95;;;1.40;55.50;;;;;;5044112;28;20568;-80
2022/03/13 07:28:45;;;;;;;9.18;5.32;;;1.50;55.30;;;;;;5053197;28;20071;-77
2022/03/13 07:31:11;;;;;;;11.27;5.60;;;1.70;55.20;;;;;;5037933;28;21033;-79
2022/03/13 07:33:36;;;;;;;8.25;4.88;;;1.80;55.00;;;;;;5062903;28;20055;-76
2022/03/13 07:36:03;;;;;;;12.48;4.85;;;1.90;54.80;;;;;;5071319;28;20166;-79
2022/03/13 07:38:28;;;;;;;8.05;4.32;;;2.10;54.80;;;;;;5080304;28;20044;-78
2022/03/13 07:40:54;;;;;;;9.73;5.00;;;2.20;54.70;;;;;;5038511;28;20032;-79
2022/03/13 07:43:19;;;;;;;8.88;4.97;;;2.40;54.60;;;;;;5083506;28;20092;-79
2022/03/13 07:45:45;;;;;;;9.48;4.90;;;2.50;54.40;;;;;;5075848;28;20028;-78
2022/03/13 07:48:10;;;;;;;10.55;5.55;;;2.70;54.10;;;;;;5068170;28;20025;-78
2022/03/13 07:50:36;;;;;;;9.38;4.93;;;2.80;54.00;;;;;;5049133;28;20505;-81
2022/03/13 07:53:02;;;;;;;6.80;4.32;;;3.00;53.90;;;;;;5048256;28;20093;-79
2022/03/13 07:55:27;;;;;;;10.20;4.85;;;3.10;53.80;;;;;;5056775;28;20036;-79
2022/03/13 07:57:53;;;;;;;10.88;4.78;;;3.30;53.70;;;;;;5048779;28;20047;-79
2022/03/13 08:00:21;;;;;;;10.27;5.93;;;3.40;53.50;;;;;;5063417;28;20024;-80
2022/03/13 08:02:48;;;;;;;9.98;4.53;;;3.60;53.30;;;;;;5061697;28;20029;-79
2022/03/13 08:05:14;;;;;;;10.07;4.65;;;3.80;53.00;;;;;;5057925;28;20058;-79
2022/03/13 08:07:40;;;;;;;8.35;4.80;;;4.00;52.90;;;;;;5059759;28;20036;-79
2022/03/13 08:10:05;;;;;;;9.65;4.97;;;4.10;52.70;;;;;;5052312;28;20032;-79
2022/03/13 08:12:31;;;;;;;7.72;4.80;;;4.30;52.60;;;;;;5070002;28;20120;-79
2022/03/13 08:14:57;;;;;;;7.60;4.68;;;4.50;52.40;;;;;;5040575;28;20032;-79
2022/03/13 08:17:22;;;;;;;7.95;5.07;;;4.70;52.10;;;;;;5057610;28;20047;-79
2022/03/13 08:19:48;;;;;;;7.93;4.90;;;4.80;51.90;;;;;;5069402;28;20044;-79
2022/03/13 08:22:14;;;;;;;10.93;5.13;;;5.00;52.30;;;;;;5066921;28;20039;-78
2022/03/13 08:24:40;;;;;;;9.32;5.13;;;5.20;51.50;;;;;;5056315;28;20090;-79
2022/03/13 08:27:06;;;;;;;7.43;4.13;;;5.30;51.20;;;;;;5053213;28;20068;-78
2022/03/13 08:29:32;;;;;;;7.07;4.22;;;5.50;51.00;;;;;;5081299;28;20033;-79
2022/03/13 08:31:57;;;;;;;10.45;4.80;;;5.70;50.80;;;;;;5048937;28;20055;-79
2022/03/13 08:34:23;;;;;;;8.05;4.18;;;5.90;50.50;;;;;;5039713;28;20032;-79
2022/03/13 08:36:49;;;;;;;7.63;4.90;;;6.10;50.40;;;;;;5069302;28;20048;-79
2022/03/13 08:39:14;;;;;;;6.45;4.22;;;6.20;50.10;;;;;;5073586;28;20095;-79
2022/03/13 08:41:41;;;;;;;6.72;4.32;;;6.40;49.80;;;;;;5061848;28;20547;-77
2022/03/13 08:44:08;;;;;;;7.78;4.90;;;6.60;49.80;;;;;;5070107;28;20037;-79
2022/03/13 08:46:33;;;;;;;8.20;4.78;;;6.80;49.60;;;;;;5053189;28;20034;-80
2022/03/13 08:48:59;;;;;;;7.63;4.28;;;7.00;49.30;;;;;;5072560;28;20095;-80
2022/03/13 08:51:27;;;;;;;5.65;4.97;;;7.20;49.20;;;;;;5047600;28;20477;-79
2022/03/13 08:53:53;;;;;;;10.00;5.20;;;7.40;48.90;;;;;;5062736;28;20393;-79
2022/03/13 08:56:20;;;;;;;9.20;4.20;;;7.60;48.60;;;;;;5043728;28;20141;-80
2022/03/13 08:58:45;;;;;;;7.47;4.72;;;7.80;48.50;;;;;;5061847;28;20068;-79
2022/03/13 09:01:11;;;;;;;7.25;4.53;;;8.00;48.10;;;;;;5068442;28;20128;-79
2022/03/13 09:03:37;;;;;;;10.48;4.88;;;8.20;47.50;;;;;;5077362;28;20040;-79
2022/03/13 09:06:03;;;;;;;7.75;4.80;;;8.30;47.30;;;;;;5057504;28;20106;-80
2022/03/13 09:08:28;;;;;;;6.88;4.35;;;8.50;47.00;;;;;;5071687;28;20040;-80
2022/03/13 09:10:54;;;;;;;6.63;4.78;;;8.70;46.80;;;;;;5073608;28;20058;-80
2022/03/13 09:13:20;;;;;;;9.50;4.80;;;8.90;46.70;;;;;;5046463;28;20032;-79
2022/03/13 09:15:49;;;;;;;7.40;4.47;;;9.10;46.50;;;;;;5051945;28;20136;-79
2022/03/13 09:18:14;;;;;;;7.25;4.22;;;9.40;46.30;;;;;;5026218;28;20039;-79
2022/03/13 09:20:40;;;;;;;6.38;4.15;;;9.60;46.30;;;;;;5065884;28;20045;-79
2022/03/13 09:23:06;;;;;;;7.13;4.35;;;9.80;46.00;;;;;;5043531;28;20162;-79
2022/03/13 09:25:32;;;;;;;8.00;4.75;;;10.00;45.80;;;;;;5051263;28;20029;-79
2022/03/13 09:27:58;;;;;;;10.73;5.50;;;10.10;45.60;;;;;;5064943;28;20039;-78
2022/03/13 09:30:24;;;;;;;8.02;4.97;;;10.40;45.50;;;;;;5067444;28;20037;-78
2022/03/13 09:32:50;;;;;;;10.77;5.05;;;10.60;45.20;;;;;;5049029;28;20101;-79
2022/03/13 09:35:15;;;;;;;7.32;4.57;;;10.80;44.60;;;;;;5013378;28;20490;-81
2022/03/13 09:37:41;;;;;;;7.65;4.88;;;10.90;44.30;;;;;;5054327;28;20046;-78
2022/03/13 09:40:09;;;;;;;7.78;5.13;;;11.10;44.10;;;;;;5072215;28;20727;-78
2022/03/13 09:42:35;;;;;;;9.15;4.80;;;11.30;44.00;;;;;;5062601;28;20099;-80
2022/03/13 09:45:00;;;;;;;6.88;4.47;;;11.50;43.80;;;;;;5020866;28;20063;-79
2022/03/13 09:47:27;;;;;;;7.15;4.50;;;11.60;43.40;;;;;;5060113;28;20109;-79
2022/03/13 09:49:53;;;;;;;7.65;4.72;;;11.90;43.20;;;;;;5066522;28;20040;-79
2022/03/13 09:52:19;;;;;;;6.88;4.30;;;12.00;43.00;;;;;;5058083;28;20059;-79
2022/03/13 09:54:44;;;;;;;7.50;4.88;;;12.20;42.80;;;;;;5063801;28;20041;-80
2022/03/13 09:57:10;;;;;;;9.02;4.50;;;12.40;42.60;;;;;;5068054;28;20040;-80
2022/03/13 09:59:35;;;;;;;7.72;4.85;;;12.60;42.20;;;;;;5065854;28;20040;-79
2022/03/13 10:02:05;;;;;;;10.27;5.85;;;12.80;41.70;;;;;;5044842;28;20408;-81
2022/03/13 10:04:31;;;;;;;6.53;4.57;;;12.90;41.20;;;;;;5075594;28;20074;-79
2022/03/13 10:07:03;;;;;;;8.50;5.03;;;13.00;41.10;;;;;;5063523;28;20043;-80
2022/03/13 10:09:29;;;;;;;8.05;4.65;;;13.10;40.90;;;;;;5044967;28;20090;-79
2022/03/13 10:12:06;;;;;;;8.38;5.20;;;13.20;41.00;;;;;;5063032;28;20044;-78
2022/03/13 10:14:31;;;;;;;7.53;4.80;;;13.40;40.20;;;;;;5065986;28;20104;-80
2022/03/13 10:16:57;;;;;;;7.13;5.05;;;13.60;40.30;;;;;;5047908;28;20063;-80
2022/03/13 10:19:24;;;;;;;6.68;4.90;;;13.80;40.10;;;;;;5046131;28;20032;-79
2022/03/13 10:22:07;;;;;;;7.47;5.20;;;14.00;39.60;;;;;;5023790;28;20068;-80
2022/03/13 10:24:46;;;;;;;7.53;4.72;;;14.10;38.50;;;;;;5059991;28;20055;-80
2022/03/13 10:27:12;;;;;;;6.72;4.65;;;14.30;38.60;;;;;;5028233;28;20067;-80
2022/03/13 10:29:39;;;;;;;8.43;5.25;;;14.40;39.00;;;;;;5048564;28;20041;-80
2022/03/13 10:32:05;;;;;;;8.80;5.72;;;14.60;38.80;;;;;;5057175;28;20078;-79
2022/03/13 10:34:31;;;;;;;9.32;6.20;;;14.80;38.40;;;;;;5060989;28;20041;-79
2022/03/13 10:36:57;;;;;;;7.07;5.30;;;15.00;38.10;;;;;;5061235;28;20162;-80
2022/03/13 10:39:23;;;;;;;12.02;5.43;;;15.20;37.90;;;;;;5059804;28;20020;-81
2022/03/13 10:41:56;;;;;;;10.27;7.13;;;15.30;37.80;;;;;;5044624;28;20047;-79
2022/03/13 10:44:22;;;;;;;8.13;5.47;;;15.50;37.70;;;;;;5068469;28;20028;-80
2022/03/13 10:46:55;;;;;;;7.50;5.60;;;15.70;37.40;;;;;;5063340;28;20484;-80
2022/03/13 10:49:53;;;;;;;7.07;4.80;;;15.70;36.60;;;;;;5063246;28;20029;-80
2022/03/13 10:52:29;;;;;;;6.63;4.72;;;15.90;36.00;;;;;;5032751;28;20036;-79
2022/03/13 10:55:30;;;;;;;8.15;5.50;;;16.00;36.40;;;;;;5048394;28;20029;-78
2022/03/13 10:57:57;;;;;;;8.43;5.00;;;16.20;36.20;;;;;;5062158;28;20043;-79
2022/03/13 11:00:23;;;;;;;8.32;4.60;;;16.50;36.30;;;;;;5044297;28;20028;-81
2022/03/13 11:02:49;;;;;;;11.32;5.05;;;16.50;35.80;;;;;;5034823;28;20032;-80
2022/03/13 11:05:15;;;;;;;7.72;4.80;;;16.50;35.60;;;;;;5044191;28;20084;-80
2022/03/13 11:07:41;;;;;;;8.88;5.03;;;16.60;35.80;;;;;;5061121;28;20129;-83
2022/03/13 11:10:07;;;;;;;6.53;4.85;;;16.80;35.60;;;;;;5021973;28;20464;-80
2022/03/13 11:12:34;;;;;;;6.70;4.78;;;16.90;35.40;;;;;;5050109;28;20198;-79
2022/03/13 11:15:00;;;;;;;6.68;4.82;;;17.10;34.90;;;;;;5054209;28;20151;-80
2022/03/13 11:17:28;;;;;;;8.32;5.15;;;17.30;34.80;;;;;;5067427;28;20064;-80
2022/03/13 11:19:58;;;;;;;5.72;4.60;;;17.50;34.60;;;;;;5021185;28;20032;-81
2022/03/13 11:22:24;;;;;;;9.00;5.35;;;17.70;34.50;;;;;;5070470;28;20044;-80
2022/03/13 11:24:50;;;;;;;6.35;4.72;;;17.90;34.20;;;;;;5044718;28;20066;-81
2022/03/13 11:27:17;;;;;;;5.60;4.65;;;18.10;34.00;;;;;;5031877;28;20029;-81
2022/03/13 11:29:47;;;;;;;10.90;5.20;;;18.30;33.90;;;;;;5050775;28;20072;-81
2022/03/13 11:32:35;;;;;;;8.60;5.00;;;18.50;33.70;;;;;;5064117;28;20048;-80
2022/03/13 11:35:18;;;;;;;8.38;4.70;;;18.70;32.70;;;;;;5039830;28;20528;-80
2022/03/13 11:37:44;;;;;;;7.15;5.00;;;18.80;32.40;;;;;;5037280;28;20054;-80
2022/03/13 11:40:11;;;;;;;6.22;4.85;;;19.00;32.90;;;;;;5062478;28;20032;-74
2022/03/13 11:42:50;;;;;;;7.38;5.07;;;19.10;32.60;;;;;;5041836;28;20048;-81
2022/03/13 11:45:28;;;;;;;8.48;5.13;;;19.30;31.60;;;;;;5036513;28;20033;-78
2022/03/13 11:47:53;;;;;;;6.85;5.28;;;19.40;31.60;;;;;;5042588;28;20033;-81
2022/03/13 11:50:19;;;;;;;6.88;5.20;;;19.60;31.90;;;;;;5055156;28;20044;-80
2022/03/13 11:52:45;;;;;;;8.10;4.90;;;19.80;31.80;;;;;;5058907;28;20036;-81
2022/03/13 11:55:11;;;;;;;7.85;5.28;;;20.00;31.50;;;;;;5055952;28;20025;-81
2022/03/13 11:57:46;;;;;;;7.05;4.25;;;20.10;31.40;;;;;;5036408;28;20047;-81
2022/03/13 12:00:14;;;;;;;6.88;4.78;;;20.20;31.00;;;;;;5034818;28;20420;-82
2022/03/13 12:02:43;;;;;;;6.53;5.20;;;20.40;31.20;;;;;;5064903;28;20021;-82
2022/03/13 12:05:27;;;;;;;7.10;5.72;;;20.50;30.80;;;;;;5084925;27;20088;-82
2022/03/13 12:07:57;;;;;;;7.82;5.55;;;20.70;29.90;;;;;;5058391;28;20051;-81
2022/03/13 12:10:32;;;;;;;7.20;5.28;;;20.80;30.30;;;;;;5057990;28;20051;-79
2022/03/13 12:13:05;;;;;;;7.32;5.28;;;20.90;29.90;;;;;;5021686;28;20048;-79
2022/03/13 12:15:30;;;;;;;12.90;6.40;;;21.00;29.70;;;;;;5055009;28;20554;-74
2022/03/13 12:17:57;;;;;;;10.45;5.47;;;21.20;29.80;;;;;;5035682;28;20037;-78
2022/03/13 12:20:28;;;;;;;8.35;5.50;;;21.30;29.60;;;;;;5044358;28;20036;-79
2022/03/13 12:22:57;;;;;;;9.82;6.03;;;21.40;29.30;;;;;;5042464;28;20155;-73
2022/03/13 12:25:26;;;;;;;8.32;6.10;;;21.50;29.40;;;;;;5049860;28;20115;-80
2022/03/13 12:27:55;;;;;;;9.82;5.70;;;21.70;29.20;;;;;;5045994;28;20118;-79
2022/03/13 12:30:27;;;;;;;12.77;6.43;;;21.90;29.10;;;;;;5030317;28;20028;-79
2022/03/13 12:33:00;;;;;;;9.65;6.60;;;22.00;28.60;;;;;;5066575;28;20083;-72
2022/03/13 12:35:26;;;;;;;8.52;5.38;;;22.10;28.80;;;;;;5061466;28;20125;-72
2022/03/13 12:37:54;;;;;;;8.30;5.53;;;22.20;28.70;;;;;;5021717;28;21725;-72
2022/03/13 12:40:21;;;;;;;7.43;6.05;;;22.30;28.60;;;;;;5022634;28;20977;-73
2022/03/13 12:42:52;;;;;;;8.25;5.68;;;22.50;28.60;;;;;;5055175;28;20086;-72
2022/03/13 12:45:18;;;;;;;8.65;5.80;;;22.50;28.30;;;;;;5033487;28;20039;-72